createdAt,value
2023-02-13T00:01:26.225Z,20.33
2023-02-13T00:03:54.652Z,19.93
2023-02-13T00:06:23.485Z,16.57
2023-02-13T00:08:51.651Z,17.10
2023-02-13T00:11:20.560Z,19.30
2023-02-13T00:13:49.138Z,19.77
2023-02-13T00:16:18.820Z,17.50
2023-02-13T00:18:46.963Z,18.90
2023-02-13T00:21:15.259Z,19.63
2023-02-13T00:23:43.426Z,20.33
2023-02-13T00:26:15.471Z,20.83
2023-02-13T00:28:43.755Z,20.00
2023-02-13T00:31:15.316Z,19.37
2023-02-13T00:33:45.215Z,20.30
2023-02-13T00:36:16.542Z,18.97
2023-02-13T00:38:45.716Z,18.63
2023-02-13T00:41:16.573Z,19.40
2023-02-13T00:43:45.095Z,21.40
2023-02-13T00:46:13.363Z,22.43
2023-02-13T00:48:41.939Z,20.40
2023-02-13T00:51:12.519Z,19.53
2023-02-13T00:53:40.939Z,17.40
2023-02-13T00:56:09.724Z,19.20
2023-02-13T00:58:38.314Z,20.23
2023-02-13T01:01:06.905Z,17.70
2023-02-13T01:03:35.128Z,21.03
2023-02-13T01:06:03.361Z,18.97
2023-02-13T01:08:32.862Z,19.60
2023-02-13T01:11:01.173Z,24.77
2023-02-13T01:13:29.315Z,23.00
2023-02-13T01:15:57.501Z,20.83
2023-02-13T01:18:25.879Z,20.10
2023-02-13T01:21:00.005Z,22.30
2023-02-13T01:23:33.558Z,25.33
2023-02-13T01:26:01.990Z,22.97
2023-02-13T01:28:30.190Z,24.37
2023-02-13T01:31:00.058Z,21.33
2023-02-13T01:33:30.375Z,23.53
2023-02-13T01:36:00.142Z,19.97
2023-02-13T01:38:28.227Z,18.33
2023-02-13T01:40:58.051Z,17.83
2023-02-13T01:43:43.457Z,19.40
2023-02-13T01:46:13.124Z,20.10
2023-02-13T01:48:41.570Z,22.40
2023-02-13T01:51:17.031Z,20.17
2023-02-13T01:53:51.260Z,19.37
2023-02-13T01:56:27.570Z,19.97
2023-02-13T01:59:01.928Z,22.13
2023-02-13T02:01:32.686Z,19.63
2023-02-13T02:04:08.797Z,22.80
2023-02-13T02:06:42.561Z,19.60
2023-02-13T02:09:16.854Z,19.37
2023-02-13T02:11:54.685Z,22.37
2023-02-13T02:14:23.168Z,20.70
2023-02-13T02:16:51.374Z,19.77
2023-02-13T02:19:34.194Z,19.90
2023-02-13T02:22:55.838Z,20.30
2023-02-13T02:26:08.657Z,19.07
2023-02-13T02:29:18.872Z,19.20
2023-02-13T02:32:18.116Z,19.90
2023-02-13T02:35:06.108Z,18.87
2023-02-13T02:38:00.533Z,20.97
2023-02-13T02:40:43.961Z,17.83
2023-02-13T02:43:29.253Z,19.07
2023-02-13T02:46:11.274Z,18.73
2023-02-13T02:49:09.713Z,20.07
2023-02-13T02:51:49.545Z,19.87
2023-02-13T02:54:44.717Z,17.47
2023-02-13T02:57:19.425Z,19.63
2023-02-13T03:00:07.936Z,18.37
2023-02-13T03:02:53.985Z,19.53
2023-02-13T03:05:48.302Z,17.20
2023-02-13T03:08:37.662Z,16.77
2023-02-13T03:11:24.689Z,20.20
2023-02-13T03:13:54.413Z,17.20
2023-02-13T03:16:44.242Z,16.27
2023-02-13T03:19:39.094Z,14.50
2023-02-13T03:22:24.370Z,16.43
2023-02-13T03:25:12.651Z,14.80
2023-02-13T03:28:08.081Z,16.93
2023-02-13T03:30:57.833Z,13.77
2023-02-13T03:33:45.781Z,13.90
2023-02-13T03:36:46.642Z,12.93
2023-02-13T03:39:24.882Z,11.70
2023-02-13T03:42:02.664Z,12.43
2023-02-13T03:44:36.868Z,11.50
2023-02-13T03:47:10.308Z,11.60
2023-02-13T03:50:04.033Z,10.10
2023-02-13T03:52:37.777Z,9.07
2023-02-13T03:55:30.412Z,9.93
2023-02-13T03:58:21.744Z,9.03
2023-02-13T04:00:55.194Z,8.87
2023-02-13T04:03:29.914Z,9.27
2023-02-13T04:06:05.503Z,8.80
2023-02-13T04:08:33.871Z,7.70
2023-02-13T04:11:15.015Z,7.37
2023-02-13T04:13:53.111Z,8.10
2023-02-13T04:16:29.978Z,9.30
2023-02-13T04:19:00.731Z,8.60
2023-02-13T04:21:29.201Z,8.13
2023-02-13T04:23:57.332Z,9.60
2023-02-13T04:26:33.907Z,8.33
2023-02-13T04:29:02.159Z,8.10
2023-02-13T04:31:30.350Z,7.90
2023-02-13T04:33:58.591Z,7.00
2023-02-13T04:36:27.022Z,7.40
2023-02-13T04:38:55.358Z,7.47
2023-02-13T04:41:23.473Z,7.70
2023-02-13T04:43:52.982Z,7.90
2023-02-13T04:46:21.162Z,7.07
2023-02-13T04:48:49.311Z,8.33
2023-02-13T04:51:17.538Z,7.83
2023-02-13T04:53:45.681Z,7.40
2023-02-13T04:56:14.305Z,8.73
2023-02-13T04:58:42.885Z,8.83
2023-02-13T05:01:17.697Z,7.53
2023-02-13T05:03:45.937Z,6.87
2023-02-13T05:06:14.282Z,8.20
2023-02-13T05:08:42.709Z,10.03
2023-02-13T05:11:10.837Z,9.37
2023-02-13T05:13:38.967Z,9.93
2023-02-13T05:16:07.812Z,7.70
2023-02-13T05:18:37.527Z,9.37
2023-02-13T05:21:23.531Z,9.17
2023-02-13T05:23:51.622Z,8.33
2023-02-13T05:26:19.709Z,10.60
2023-02-13T05:29:05.243Z,10.53
2023-02-13T05:31:33.485Z,10.03
2023-02-13T05:34:03.005Z,10.33
2023-02-13T05:36:31.137Z,11.40
2023-02-13T05:38:59.277Z,9.17
2023-02-13T05:41:27.635Z,10.33
2023-02-13T05:43:55.851Z,12.40
2023-02-13T05:46:24.041Z,11.10
2023-02-13T05:48:52.954Z,13.00
2023-02-13T05:51:22.484Z,10.73
2023-02-13T05:53:50.617Z,10.70
2023-02-13T05:56:18.764Z,10.87
2023-02-13T05:58:46.844Z,10.50
2023-02-13T06:01:15.112Z,9.93
2023-02-13T06:03:43.213Z,11.17
2023-02-13T06:06:11.554Z,10.07
2023-02-13T06:08:41.075Z,11.33
2023-02-13T06:11:09.839Z,12.57
2023-02-13T06:13:40.601Z,10.87
2023-02-13T06:16:09.344Z,14.07
2023-02-13T06:18:38.888Z,14.43
2023-02-13T06:21:08.514Z,16.23
2023-02-13T06:23:36.992Z,13.27
2023-02-13T06:26:09.249Z,12.77
2023-02-13T06:28:37.736Z,13.10
2023-02-13T06:31:06.426Z,13.73
2023-02-13T06:33:34.677Z,15.67
2023-02-13T06:36:02.792Z,13.43
2023-02-13T06:38:32.027Z,11.50
2023-02-13T06:41:02.862Z,12.33
2023-02-13T06:43:32.677Z,12.00
2023-02-13T06:46:00.870Z,11.90
2023-02-13T06:48:28.946Z,11.10
2023-02-13T06:50:57.258Z,10.20
2023-02-13T06:53:25.653Z,10.77
2023-02-13T06:55:54.472Z,10.20
2023-02-13T06:58:23.972Z,10.07
2023-02-13T07:00:54.746Z,9.33
2023-02-13T07:03:22.985Z,10.07
2023-02-13T07:05:52.046Z,10.37
2023-02-13T07:08:20.365Z,8.40
2023-02-13T07:10:48.517Z,13.40
2023-02-13T07:13:16.724Z,10.57
2023-02-13T07:15:44.934Z,10.20
2023-02-13T07:18:14.538Z,11.10
2023-02-13T07:20:42.676Z,12.70
2023-02-13T07:23:12.010Z,9.70
2023-02-13T07:25:40.150Z,8.70
2023-02-13T07:28:08.725Z,7.83
2023-02-13T07:30:37.113Z,8.17
2023-02-13T07:33:06.572Z,7.23
2023-02-13T07:35:37.671Z,6.43
2023-02-13T07:38:06.258Z,7.30
2023-02-13T07:40:34.446Z,7.70
2023-02-13T07:43:03.255Z,6.87
2023-02-13T07:45:31.813Z,8.03
2023-02-13T07:48:00.760Z,8.00
2023-02-13T07:50:30.129Z,10.50
2023-02-13T07:53:02.028Z,7.70
2023-02-13T07:55:32.689Z,9.77
2023-02-13T07:58:02.119Z,9.07
2023-02-13T08:00:30.563Z,9.50
2023-02-13T08:03:01.101Z,9.00
2023-02-13T08:05:30.051Z,10.90
2023-02-13T08:07:59.531Z,8.13
2023-02-13T08:10:45.288Z,12.83
2023-02-13T08:13:15.882Z,9.40
2023-02-13T08:15:44.953Z,9.80
2023-02-13T08:18:13.157Z,8.53
2023-02-13T08:20:41.295Z,8.60
2023-02-13T08:23:12.691Z,8.87
2023-02-13T08:25:41.580Z,8.10
2023-02-13T08:28:09.889Z,7.57
2023-02-13T08:30:38.303Z,7.93
2023-02-13T08:33:06.499Z,6.13
2023-02-13T08:35:34.649Z,7.90
2023-02-13T08:38:06.714Z,6.40
2023-02-13T08:40:36.820Z,6.97
2023-02-13T08:43:08.457Z,7.07
2023-02-13T08:45:37.731Z,8.10
2023-02-13T08:48:07.449Z,6.57
2023-02-13T08:50:37.102Z,6.93
2023-02-13T08:53:06.373Z,8.03
2023-02-13T08:55:35.892Z,8.40
2023-02-13T08:58:05.525Z,7.93
2023-02-13T09:00:33.792Z,7.17
2023-02-13T09:03:03.410Z,7.77
2023-02-13T09:05:32.547Z,7.80
2023-02-13T09:08:03.694Z,8.00
2023-02-13T09:10:32.667Z,7.10
2023-02-13T09:13:02.369Z,7.30
2023-02-13T09:15:30.980Z,8.30
2023-02-13T09:17:59.406Z,7.83
2023-02-13T09:20:28.004Z,7.73
2023-02-13T09:22:57.411Z,9.63
2023-02-13T09:25:25.629Z,8.60
2023-02-13T09:27:53.754Z,7.53
2023-02-13T09:30:26.630Z,8.10
2023-02-13T09:32:56.005Z,7.73
2023-02-13T09:35:24.969Z,7.60
2023-02-13T09:37:53.073Z,8.77
2023-02-13T09:40:29.423Z,8.63
2023-02-13T09:43:08.656Z,8.17
2023-02-13T09:45:40.109Z,7.40
2023-02-13T09:48:17.170Z,7.63
2023-02-13T09:50:45.375Z,7.57
2023-02-13T09:53:23.419Z,9.43
2023-02-13T09:56:06.648Z,9.40
2023-02-13T09:58:45.784Z,9.80
2023-02-13T10:01:31.058Z,8.57
2023-02-13T10:04:23.594Z,9.07
2023-02-13T10:07:09.000Z,10.23
2023-02-13T10:09:48.515Z,7.77
2023-02-13T10:12:37.205Z,7.73
2023-02-13T10:15:27.024Z,9.60
2023-02-13T10:18:05.091Z,8.50
2023-02-13T10:20:41.060Z,6.87
2023-02-13T10:23:22.120Z,6.20
2023-02-13T10:25:58.236Z,6.73
2023-02-13T10:28:39.535Z,7.03
2023-02-13T10:31:13.135Z,6.90
2023-02-13T10:33:51.266Z,7.80
2023-02-13T10:36:24.403Z,6.37
2023-02-13T10:39:01.766Z,5.47
2023-02-13T10:41:50.798Z,5.60
2023-02-13T10:44:44.661Z,5.70
2023-02-13T10:47:34.877Z,4.40
2023-02-13T10:50:23.682Z,4.93
2023-02-13T10:53:05.484Z,4.70
2023-02-13T10:56:07.989Z,4.80
2023-02-13T10:58:56.480Z,5.63
2023-02-13T11:01:32.467Z,5.73
2023-02-13T11:04:09.245Z,3.73
2023-02-13T11:06:44.329Z,3.67
2023-02-13T11:09:13.560Z,3.80
2023-02-13T11:11:43.881Z,3.50
2023-02-13T11:14:16.398Z,3.00
2023-02-13T11:16:58.543Z,3.77
2023-02-13T11:19:33.744Z,4.07
2023-02-13T11:22:08.960Z,4.30
2023-02-13T11:24:38.275Z,4.10
2023-02-13T11:27:12.801Z,3.90
2023-02-13T11:29:55.970Z,6.27
2023-02-13T11:32:26.115Z,4.93
2023-02-13T11:34:56.079Z,3.70
2023-02-13T11:37:29.154Z,6.43
2023-02-13T11:39:59.965Z,3.10
2023-02-13T11:42:32.554Z,5.33
2023-02-13T11:45:06.186Z,4.03
2023-02-13T11:47:40.979Z,3.37
2023-02-13T11:50:25.806Z,4.03
2023-02-13T11:53:06.105Z,5.20
2023-02-13T11:55:38.132Z,4.33
2023-02-13T11:58:25.917Z,4.10
2023-02-13T12:01:25.840Z,4.27
2023-02-13T12:04:07.292Z,4.07
2023-02-13T12:06:40.734Z,3.60
2023-02-13T12:09:16.686Z,2.97
2023-02-13T12:11:50.488Z,3.30
2023-02-13T12:14:23.854Z,3.53
2023-02-13T12:16:58.692Z,3.20
2023-02-13T12:19:36.051Z,3.97
2023-02-13T12:22:34.651Z,4.33
2023-02-13T12:25:55.260Z,4.27
2023-02-13T12:28:33.650Z,4.37
2023-02-13T12:31:43.711Z,4.03
2023-02-13T12:34:47.528Z,5.10
2023-02-13T12:37:39.179Z,5.17
2023-02-13T12:40:54.110Z,6.43
2023-02-13T12:44:16.591Z,5.70
2023-02-13T12:46:59.382Z,4.57
2023-02-13T12:49:54.281Z,5.57
2023-02-13T12:53:18.445Z,5.40
2023-02-13T12:56:09.734Z,4.67
2023-02-13T12:59:08.162Z,5.90
2023-02-13T13:02:37.034Z,5.30
2023-02-13T13:05:20.401Z,5.03
2023-02-13T13:08:13.813Z,5.07
2023-02-13T13:11:12.258Z,5.20
2023-02-13T13:13:56.124Z,4.93
2023-02-13T13:16:36.912Z,5.00
2023-02-13T13:19:18.365Z,4.47
2023-02-13T13:21:55.410Z,5.00
2023-02-13T13:24:45.588Z,6.17
2023-02-13T13:27:24.692Z,4.80
2023-02-13T13:30:00.110Z,5.00
2023-02-13T13:32:32.071Z,5.93
2023-02-13T13:35:00.947Z,5.80
2023-02-13T13:37:37.480Z,7.07
2023-02-13T13:40:30.497Z,6.30
2023-02-13T13:43:08.094Z,5.80
2023-02-13T13:45:50.545Z,6.50
2023-02-13T13:48:48.625Z,5.50
2023-02-13T13:51:19.943Z,8.37
2023-02-13T13:54:36.816Z,6.20
2023-02-13T13:57:24.411Z,5.10
2023-02-13T14:00:27.503Z,5.97
2023-02-13T14:03:23.401Z,6.77
2023-02-13T14:06:10.951Z,7.03
2023-02-13T14:09:07.247Z,6.90
2023-02-13T14:11:42.078Z,6.20
2023-02-13T14:14:53.712Z,5.87
2023-02-13T14:17:55.549Z,6.63
2023-02-13T14:20:37.444Z,5.80
2023-02-13T14:23:18.843Z,5.83
2023-02-13T14:25:50.045Z,7.07
2023-02-13T14:28:27.973Z,7.97
2023-02-13T14:31:14.795Z,8.90
2023-02-13T14:33:44.691Z,7.30
2023-02-13T14:36:27.136Z,9.10
2023-02-13T14:39:02.230Z,8.33
2023-02-13T14:41:47.413Z,9.67
2023-02-13T14:44:23.237Z,8.63
2023-02-13T14:46:54.577Z,8.80
2023-02-13T14:49:29.706Z,8.23
2023-02-13T14:52:02.620Z,9.10
2023-02-13T14:54:35.973Z,9.00
2023-02-13T14:57:13.086Z,9.97
2023-02-13T14:59:47.192Z,9.03
2023-02-13T15:02:23.335Z,8.60
2023-02-13T15:05:00.259Z,10.13
2023-02-13T15:07:34.329Z,9.60
2023-02-13T15:10:07.403Z,10.43
2023-02-13T15:12:38.602Z,8.50
2023-02-13T15:15:27.572Z,7.97
2023-02-13T15:18:02.523Z,8.47
2023-02-13T15:20:35.933Z,9.33
2023-02-13T15:23:06.602Z,7.37
2023-02-13T15:25:39.114Z,8.40
2023-02-13T15:28:18.070Z,7.93
2023-02-13T15:30:56.215Z,6.57
2023-02-13T15:33:27.800Z,8.77
2023-02-13T15:36:00.584Z,7.73
2023-02-13T15:38:31.618Z,8.97
2023-02-13T15:41:05.401Z,9.63
2023-02-13T15:43:38.324Z,8.53
2023-02-13T15:46:19.495Z,7.80
2023-02-13T15:48:48.620Z,6.97
2023-02-13T15:51:24.703Z,8.23
2023-02-13T15:53:53.409Z,6.57
2023-02-13T15:56:21.659Z,7.80
2023-02-13T15:58:51.253Z,7.30
2023-02-13T16:01:19.595Z,7.20
2023-02-13T16:03:51.983Z,8.83
2023-02-13T16:06:25.359Z,7.37
2023-02-13T16:08:55.369Z,8.40
2023-02-13T16:11:36.859Z,9.97
2023-02-13T16:14:14.132Z,8.57
2023-02-13T16:16:52.004Z,9.50
2023-02-13T16:19:34.058Z,9.43
2023-02-13T16:22:16.763Z,10.23
2023-02-13T16:24:51.922Z,9.07
2023-02-13T16:27:25.291Z,8.57
2023-02-13T16:29:59.816Z,10.10
2023-02-13T16:32:32.231Z,8.53
2023-02-13T16:35:27.122Z,9.93
2023-02-13T16:38:00.819Z,10.53
2023-02-13T16:40:43.776Z,10.37
2023-02-13T16:43:43.372Z,8.23
2023-02-13T16:46:24.210Z,9.53
2023-02-13T16:49:16.861Z,10.23
2023-02-13T16:51:50.073Z,9.67
2023-02-13T16:54:26.719Z,11.73
2023-02-13T16:56:59.779Z,10.57
2023-02-13T16:59:52.722Z,10.50
2023-02-13T17:02:24.466Z,10.17
2023-02-13T17:04:56.778Z,9.00
2023-02-13T17:07:28.869Z,8.90
2023-02-13T17:10:01.583Z,8.37
2023-02-13T17:12:32.600Z,10.87
2023-02-13T17:15:00.947Z,10.07
2023-02-13T17:17:31.871Z,10.80
2023-02-13T17:20:00.410Z,8.87
2023-02-13T17:22:38.370Z,8.50
2023-02-13T17:25:16.400Z,8.77
2023-02-13T17:27:44.533Z,9.23
2023-02-13T17:30:16.783Z,10.70
2023-02-13T17:32:47.368Z,8.60
2023-02-13T17:35:17.537Z,6.90
2023-02-13T17:37:46.338Z,7.67
2023-02-13T17:40:22.083Z,7.27
2023-02-13T17:42:54.181Z,8.47
2023-02-13T17:45:25.999Z,9.67
2023-02-13T17:47:54.656Z,8.77
2023-02-13T17:50:23.209Z,9.30
2023-02-13T17:52:52.004Z,7.90
2023-02-13T17:55:25.282Z,9.03
2023-02-13T17:57:57.425Z,8.63
2023-02-13T18:00:27.950Z,8.67
2023-02-13T18:02:57.753Z,10.90
2023-02-13T18:05:25.957Z,9.47
2023-02-13T18:07:54.181Z,9.57
2023-02-13T18:10:27.685Z,9.07
2023-02-13T18:12:58.317Z,10.23
2023-02-13T18:15:26.502Z,9.47
2023-02-13T18:17:54.674Z,9.23
2023-02-13T18:20:23.027Z,9.67
2023-02-13T18:22:51.422Z,10.93
2023-02-13T18:25:21.440Z,9.67
2023-02-13T18:27:50.928Z,12.30
2023-02-13T18:30:21.341Z,10.47
2023-02-13T18:32:53.879Z,12.30
2023-02-13T18:35:22.899Z,12.90
2023-02-13T18:37:51.446Z,11.60
2023-02-13T18:40:19.677Z,11.73
2023-02-13T18:42:49.672Z,13.70
2023-02-13T18:45:19.972Z,11.00
2023-02-13T18:47:48.094Z,12.50
2023-02-13T18:50:16.170Z,13.30
2023-02-13T18:52:44.355Z,11.60
2023-02-13T18:55:12.476Z,10.57
2023-02-13T18:57:43.378Z,10.33
2023-02-13T19:00:14.227Z,12.53
2023-02-13T19:02:43.694Z,12.50
2023-02-13T19:05:11.827Z,11.80
2023-02-13T19:07:39.913Z,12.63
2023-02-13T19:10:09.204Z,12.57
2023-02-13T19:12:37.379Z,12.23
2023-02-13T19:15:06.280Z,11.17
2023-02-13T19:17:35.886Z,11.73
2023-02-13T19:20:07.025Z,11.23
2023-02-13T19:22:35.081Z,11.10
2023-02-13T19:25:03.177Z,13.57
2023-02-13T19:27:31.250Z,15.00
2023-02-13T19:29:59.514Z,15.67
2023-02-13T19:32:27.625Z,14.20
2023-02-13T19:34:55.777Z,15.73
2023-02-13T19:37:28.290Z,14.20
2023-02-13T19:39:56.569Z,17.00
2023-02-13T19:42:24.710Z,14.77
2023-02-13T19:44:52.958Z,22.03
2023-02-13T19:47:21.114Z,20.30
2023-02-13T19:49:49.971Z,19.20
2023-02-13T19:52:19.070Z,22.63
2023-02-13T19:54:49.638Z,24.90
2023-02-13T19:57:18.318Z,22.20
2023-02-13T19:59:46.480Z,20.87
2023-02-13T20:02:17.185Z,19.20
2023-02-13T20:04:45.777Z,15.33
2023-02-13T20:07:14.407Z,16.97
2023-02-13T20:09:42.580Z,16.27
2023-02-13T20:12:12.154Z,15.47
2023-02-13T20:14:40.315Z,16.00
2023-02-13T20:17:08.450Z,16.73
2023-02-13T20:19:37.213Z,24.10
2023-02-13T20:22:05.359Z,21.23
2023-02-13T20:24:33.695Z,22.40
2023-02-13T20:27:01.855Z,24.47
2023-02-13T20:29:31.293Z,23.93
2023-02-13T20:31:59.651Z,25.10
2023-02-13T20:34:29.644Z,25.63
2023-02-13T20:36:59.707Z,26.07
2023-02-13T20:39:27.907Z,23.23
2023-02-13T20:41:56.031Z,22.63
2023-02-13T20:44:24.166Z,23.63
2023-02-13T20:46:54.882Z,23.57
2023-02-13T20:49:23.005Z,21.87
2023-02-13T20:51:51.244Z,25.60
2023-02-13T20:54:20.162Z,25.70
2023-02-13T20:56:48.305Z,25.53
2023-02-13T20:59:16.433Z,27.40
2023-02-13T21:01:45.591Z,29.80
2023-02-13T21:04:19.052Z,28.60
2023-02-13T21:06:48.735Z,26.07
2023-02-13T21:09:17.381Z,23.50
2023-02-13T21:11:46.284Z,25.57
2023-02-13T21:14:15.435Z,25.97
2023-02-13T21:16:44.849Z,28.70
2023-02-13T21:19:20.139Z,26.13
2023-02-13T21:21:48.988Z,29.00
2023-02-13T21:24:21.082Z,27.47
2023-02-13T21:26:51.898Z,29.03
2023-02-13T21:29:20.413Z,26.37
2023-02-13T21:31:48.949Z,25.30
2023-02-13T21:34:19.659Z,24.33
2023-02-13T21:36:48.182Z,24.83
2023-02-13T21:39:16.840Z,20.63
2023-02-13T21:41:46.753Z,22.03
2023-02-13T21:44:17.668Z,21.67
2023-02-13T21:46:47.320Z,20.73
2023-02-13T21:49:19.242Z,18.93
2023-02-13T21:51:48.567Z,21.97
2023-02-13T21:54:16.757Z,21.80
2023-02-13T21:56:45.738Z,19.53
2023-02-13T21:59:16.920Z,20.70
2023-02-13T22:01:46.922Z,19.57
2023-02-13T22:04:15.558Z,16.60
2023-02-13T22:06:49.311Z,19.83
2023-02-13T22:09:20.857Z,17.40
2023-02-13T22:11:51.718Z,17.50
2023-02-13T22:14:20.394Z,16.97
2023-02-13T22:16:51.883Z,16.40
2023-02-13T22:19:20.864Z,16.73
2023-02-13T22:21:50.581Z,16.67
2023-02-13T22:24:18.772Z,15.60
2023-02-13T22:26:47.091Z,16.33
2023-02-13T22:29:18.469Z,16.70
2023-02-13T22:31:47.815Z,14.60
2023-02-13T22:34:16.642Z,15.23
2023-02-13T22:36:44.850Z,16.27
2023-02-13T22:39:14.334Z,14.57
2023-02-13T22:41:45.479Z,15.53
2023-02-13T22:44:13.723Z,15.80
2023-02-13T22:46:41.863Z,15.20
2023-02-13T22:49:10.039Z,16.30
2023-02-13T22:51:38.414Z,17.50
2023-02-13T22:54:07.587Z,16.23
2023-02-13T22:56:37.084Z,16.83
2023-02-13T22:59:05.227Z,18.07
2023-02-13T23:01:33.385Z,17.50
2023-02-13T23:04:01.742Z,17.43
2023-02-13T23:06:30.174Z,16.83
2023-02-13T23:08:58.797Z,17.80
2023-02-13T23:11:46.868Z,19.70
2023-02-13T23:14:17.024Z,20.83
2023-02-13T23:17:03.224Z,19.50
2023-02-13T23:19:32.120Z,18.50
2023-02-13T23:22:00.930Z,18.57
2023-02-13T23:24:30.197Z,20.03
2023-02-13T23:26:58.520Z,18.97
2023-02-13T23:29:28.530Z,19.20
2023-02-13T23:31:57.058Z,19.73
2023-02-13T23:34:25.314Z,21.27
2023-02-13T23:36:53.479Z,20.77
2023-02-13T23:39:21.778Z,19.47
2023-02-13T23:41:49.883Z,21.27
2023-02-13T23:44:18.110Z,20.50
2023-02-13T23:46:47.604Z,21.43
2023-02-13T23:49:15.960Z,23.00
2023-02-13T23:51:44.151Z,21.87
2023-02-13T23:54:16.906Z,23.73
2023-02-13T23:56:45.451Z,20.73
2023-02-13T23:59:14.059Z,22.73
